Time;durP1;ratioP1;P1;durP2;ratioP2;P2;SDS_P1;SDS_P2;PMS_P1;PMS_P2;Temp;Humidity;BMP_temperature;BMP_pressure;BME280_temperature;BME280_humidity;BME280_pressure;Samples;Min_cycle;Max_cycle;Signal;HPM_P1;HPM_P2
2021/12/07 00:00:53;;;;;;;24.50;4.47;;;;;;;5.73;100.00;99993.28;5011395;28;20120;-74
2021/12/07 00:03:20;;;;;;;24.25;3.85;;;;;;;5.75;100.00;99993.84;5011930;28;20109;-75
2021/12/07 00:05:47;;;;;;;29.55;5.18;;;;;;;5.67;100.00;99992.34;5011339;28;20118;-74
2021/12/07 00:08:12;;;;;;;31.30;3.90;;;;;;;5.74;100.00;99994.91;4998384;28;20079;-74
2021/12/07 00:10:42;;;;;;;36.35;4.43;;;;;;;5.73;100.00;99986.09;5011827;28;20131;-74
2021/12/07 00:13:09;;;;;;;37.83;5.40;;;;;;;5.69;100.00;100003.56;5011132;28;20044;-75
2021/12/07 00:15:36;;;;;;;37.92;5.60;;;;;;;5.77;100.00;99997.91;5011853;28;20048;-76
2021/12/07 00:18:05;;;;;;;29.77;4.70;;;;;;;5.74;100.00;99998.38;5009654;28;20077;-75
2021/12/07 00:20:31;;;;;;;22.42;4.82;;;;;;;5.69;100.00;99995.59;5000865;28;20056;-76
2021/12/07 00:23:04;;;;;;;30.23;5.60;;;;;;;5.67;100.00;99996.88;5016584;28;20037;-76
2021/12/07 00:25:30;;;;;;;27.52;5.05;;;;;;;5.60;100.00;99994.34;5014510;28;20053;-74
2021/12/07 00:27:56;;;;;;;32.40;5.78;;;;;;;5.62;100.00;100021.53;5010056;28;20280;-75
2021/12/07 00:30:26;;;;;;;38.47;5.30;;;;;;;5.65;100.00;100005.09;5010988;28;20025;-76
2021/12/07 00:33:07;;;;;;;35.65;5.53;;;;;;;5.60;100.00;100021.75;5014523;28;20524;-76
2021/12/07 00:35:36;;;;;;;39.40;4.82;;;;;;;5.64;100.00;100030.09;5014156;28;20037;-75
2021/12/07 00:38:07;;;;;;;32.53;5.53;;;;;;;5.57;100.00;100026.75;5010231;28;20671;-74
2021/12/07 00:40:36;;;;;;;34.63;5.03;;;;;;;5.62;100.00;100032.19;5020326;28;20114;-75
2021/12/07 00:43:02;;;;;;;35.63;6.80;;;;;;;5.66;100.00;100037.84;5011063;28;20044;-76
2021/12/07 00:45:31;;;;;;;40.10;5.68;;;;;;;5.70;100.00;100034.50;5010820;28;20476;-75
2021/12/07 00:47:57;;;;;;;28.00;6.30;;;;;;;5.70;100.00;100042.47;5010793;28;20068;-75
2021/12/07 00:50:26;;;;;;;28.77;5.28;;;;;;;5.73;100.00;100041.19;5000753;28;20043;-75
2021/12/07 00:52:54;;;;;;;32.80;5.72;;;;;;;5.70;100.00;100050.47;5019168;28;20034;-75
2021/12/07 00:55:23;;;;;;;31.90;5.80;;;;;;;5.68;100.00;100055.19;5013072;28;20435;-75
2021/12/07 00:57:52;;;;;;;27.05;4.30;;;;;;;5.58;100.00;100050.44;5010698;28;20416;-74
2021/12/07 01:00:25;;;;;;;25.90;5.07;;;;;;;5.60;100.00;100063.50;5010918;28;20037;-76
2021/12/07 01:02:51;;;;;;;24.45;4.68;;;;;;;5.60;100.00;100055.53;5009200;28;20056;-75
2021/12/07 01:05:22;;;;;;;23.75;4.90;;;;;;;5.57;100.00;100070.13;5010347;28;22110;-75
2021/12/07 01:07:58;;;;;;;26.55;4.47;;;;;;;5.41;100.00;100067.34;5010620;28;20041;-75
2021/12/07 01:26:54;;;;;;;37.63;7.35;;;;;;;5.43;100.00;100102.50;5010238;28;20952;-75
2021/12/07 01:29:24;;;;;;;23.73;5.28;;;;;;;5.35;100.00;100122.25;5010259;28;20091;-75
2021/12/07 01:37:08;;;;;;;32.00;5.03;;;;;;;5.45;100.00;100127.00;4991985;28;20127;-73
2021/12/07 01:47:44;;;;;;;26.13;3.53;;;;;;;5.65;100.00;100138.16;5009160;28;20037;-75
2021/12/07 01:52:57;;;;;;;35.25;4.03;;;;;;;5.65;100.00;100148.81;4998427;28;20041;-75
2021/12/07 02:01:03;;;;;;;34.08;4.38;;;;;;;5.43;100.00;100127.25;5009322;28;20049;-75
2021/12/07 02:03:28;;;;;;;23.42;3.70;;;;;;;5.58;100.00;100134.78;5009955;28;20033;-75
2021/12/07 02:05:57;;;;;;;29.17;4.68;;;;;;;5.57;100.00;100159.78;5025406;28;20041;-75
2021/12/07 02:08:25;;;;;;;25.67;3.78;;;;;;;5.47;100.00;100151.56;5009964;28;20072;-75
2021/12/07 02:10:54;;;;;;;18.80;2.85;;;;;;;5.34;100.00;100164.00;5015485;28;20127;-75
2021/12/07 02:14:14;;;;;;;28.92;4.00;;;;;;;5.36;100.00;100169.09;5010239;28;20038;-75
2021/12/07 02:16:10;;;;;;;27.58;5.05;;;;;;;5.33;100.00;100165.03;5010883;28;20072;-74
2021/12/07 02:18:41;;;;;;;25.17;3.85;;;;;;;5.32;100.00;100171.41;4995689;28;20112;-75
2021/12/07 02:21:26;;;;;;;26.35;5.40;;;;;;;5.44;100.00;100179.41;5009132;28;20037;-75
2021/12/07 02:23:52;;;;;;;28.88;3.90;;;;;;;5.48;100.00;100195.75;5009848;28;20041;-75
2021/12/07 02:26:18;;;;;;;19.20;2.78;;;;;;;5.32;100.00;100187.38;5014960;28;20472;-74
2021/12/07 02:28:45;;;;;;;16.73;3.03;;;;;;;5.21;100.00;100209.44;5024871;28;20029;-74
2021/12/07 02:31:11;;;;;;;24.88;3.65;;;;;;;5.20;100.00;100199.78;5013174;28;20094;-75
2021/12/07 02:33:36;;;;;;;22.70;3.33;;;;;;;5.28;100.00;100211.97;5013597;28;20059;-75
2021/12/07 02:36:05;;;;;;;31.80;3.70;;;;;;;5.39;100.00;100205.09;5014131;28;20063;-75
2021/12/07 02:38:30;;;;;;;20.65;3.90;;;;;;;5.23;100.00;100215.31;5012615;28;20076;-74
2021/12/07 02:40:56;;;;;;;29.20;4.10;;;;;;;5.22;100.00;100203.06;5013744;28;20136;-75
2021/12/07 02:43:25;;;;;;;27.23;5.10;;;;;;;5.30;100.00;100220.56;5011244;28;20556;-74
2021/12/07 02:45:51;;;;;;;25.83;5.03;;;;;;;5.29;100.00;100216.25;5018054;28;20036;-74
2021/12/07 02:48:19;;;;;;;26.25;3.97;;;;;;;5.23;100.00;100211.84;5027247;28;20037;-74
2021/12/07 02:50:49;;;;;;;34.22;4.88;;;;;;;5.35;100.00;100218.81;5028434;28;20041;-74
2021/12/07 02:53:24;;;;;;;21.05;4.32;;;;;;;5.32;100.00;100221.94;5019524;28;20029;-74
2021/12/07 02:55:50;;;;;;;24.17;3.83;;;;;;;5.33;100.00;100217.44;5012864;28;20413;-74
2021/12/07 02:58:19;;;;;;;25.77;4.20;;;;;;;5.34;100.00;100225.19;5013141;28;20143;-74
2021/12/07 03:00:57;;;;;;;24.08;4.35;;;;;;;5.41;100.00;100232.28;5011839;28;20093;-74
2021/12/07 03:03:23;;;;;;;29.48;4.35;;;;;;;5.40;100.00;100235.97;5027667;28;20037;-75
2021/12/07 03:06:04;;;;;;;34.40;4.57;;;;;;;5.33;100.00;100233.41;5010456;28;20033;-75
2021/12/07 03:27:34;;;;;;;27.58;3.40;;;;;;;5.32;100.00;100272.50;5013455;28;20523;-74
2021/12/07 03:30:00;;;;;;;32.70;4.10;;;;;;;5.35;100.00;100265.91;5012608;28;20410;-74
2021/12/07 03:32:25;;;;;;;30.08;4.75;;;;;;;5.32;100.00;100272.50;5012590;28;20037;-74
2021/12/07 03:34:51;;;;;;;24.30;3.60;;;;;;;5.31;100.00;100264.75;5011232;28;20029;-74
2021/12/07 03:37:19;;;;;;;28.77;3.38;;;;;;;5.30;100.00;100263.94;5013101;28;20075;-75
2021/12/07 03:39:45;;;;;;;24.08;3.75;;;;;;;5.28;100.00;100281.94;5012309;28;20491;-75
2021/12/07 03:42:10;;;;;;;36.25;4.20;;;;;;;5.33;100.00;100278.63;5011937;28;20048;-74
2021/12/07 03:44:36;;;;;;;27.73;4.53;;;;;;;5.23;100.00;100262.38;5014674;28;20063;-74
2021/12/07 03:47:05;;;;;;;23.73;3.47;;;;;;;5.22;100.00;100271.41;5016404;28;20449;-74
2021/12/07 03:49:31;;;;;;;28.55;5.22;;;;;;;5.32;100.00;100277.81;5012114;28;20538;-76
2021/12/07 03:51:56;;;;;;;24.67;4.50;;;;;;;5.27;100.00;100296.28;5011188;28;20032;-74
2021/12/07 03:54:22;;;;;;;29.13;3.60;;;;;;;5.22;100.00;100287.34;5018040;28;20488;-75
2021/12/07 03:56:50;;;;;;;23.55;3.90;;;;;;;5.20;100.00;100295.53;5012409;28;20508;-74
2021/12/07 03:59:16;;;;;;;29.33;3.80;;;;;;;5.15;100.00;100303.38;5011586;28;20052;-75
2021/12/07 04:01:44;;;;;;;27.52;4.05;;;;;;;5.13;100.00;100296.66;5012497;28;21984;-74
2021/12/07 04:04:12;;;;;;;30.45;3.67;;;;;;;4.94;100.00;100285.22;5011672;28;20447;-74
2021/12/07 04:06:41;;;;;;;22.00;3.53;;;;;;;4.75;100.00;100295.03;5012640;28;20139;-75
2021/12/07 04:09:06;;;;;;;43.28;5.43;;;;;;;4.69;100.00;100298.56;5013628;28;22485;-74
2021/12/07 04:11:32;;;;;;;26.70;3.83;;;;;;;4.50;100.00;100300.38;5011942;28;20029;-73
2021/12/07 04:13:57;;;;;;;26.73;3.58;;;;;;;4.49;100.00;100293.44;5013628;28;20026;-73
2021/12/07 04:16:23;;;;;;;30.98;4.97;;;;;;;4.52;100.00;100303.63;5012265;28;20037;-73
2021/12/07 04:18:51;;;;;;;30.10;4.03;;;;;;;4.54;100.00;100290.94;5025874;28;20072;-73
2021/12/07 04:21:19;;;;;;;30.55;4.18;;;;;;;4.55;100.00;100276.59;5011794;28;20382;-74
2021/12/07 04:23:45;;;;;;;31.85;5.07;;;;;;;4.55;100.00;100286.44;5014790;28;20041;-73
2021/12/07 04:26:14;;;;;;;25.23;4.03;;;;;;;4.48;100.00;100270.56;5011465;28;20500;-73
2021/12/07 04:28:43;;;;;;;36.67;4.47;;;;;;;4.59;100.00;100293.75;5010118;28;20025;-73
2021/12/07 04:31:10;;;;;;;37.95;3.92;;;;;;;4.64;100.00;100323.16;5026227;28;20048;-74
2021/12/07 04:33:36;;;;;;;20.80;3.58;;;;;;;4.76;100.00;100313.41;5012752;28;20039;-74
2021/12/07 04:36:07;;;;;;;20.27;3.00;;;;;;;4.67;100.00;100301.44;5017291;28;20044;-73
2021/12/07 04:38:36;;;;;;;37.30;3.83;;;;;;;4.62;100.00;100316.41;5026769;28;20065;-74
2021/12/07 04:41:02;;;;;;;21.20;4.13;;;;;;;4.74;100.00;100309.34;5014323;28;20114;-73
2021/12/07 04:43:28;;;;;;;25.90;4.80;;;;;;;4.74;100.00;100306.69;5010303;28;20044;-73
2021/12/07 04:59:34;;;;;;;29.83;4.60;;;;;;;5.02;100.00;100322.13;5011041;28;20053;-73
2021/12/07 05:02:00;;;;;;;27.42;4.03;;;;;;;5.01;100.00;100323.19;5010247;28;20509;-73
2021/12/07 05:04:29;;;;;;;34.75;5.53;;;;;;;5.06;100.00;100326.81;5010553;28;20029;-74
2021/12/07 05:07:05;;;;;;;36.05;5.35;;;;;;;5.00;100.00;100332.19;5014750;28;20473;-74
2021/12/07 05:14:29;;;;;;;35.67;5.07;;;;;;;5.01;100.00;100333.81;5010237;28;20052;-74
2021/12/07 05:39:10;;;;;;;39.47;5.28;;;;;;;5.18;100.00;100381.91;5010325;28;20044;-68
2021/12/07 05:41:35;;;;;;;48.13;4.47;;;;;;;5.19;100.00;100381.69;5010069;28;20029;-68
2021/12/07 05:44:02;;;;;;;37.72;5.70;;;;;;;5.17;100.00;100389.06;5023483;28;20033;-68
2021/12/07 05:46:28;;;;;;;34.15;4.55;;;;;;;5.17;100.00;100386.41;5008009;28;20033;-68
2021/12/07 05:48:53;;;;;;;31.23;4.50;;;;;;;5.15;100.00;100391.16;5008168;28;20041;-67
2021/12/07 05:51:19;;;;;;;33.15;4.00;;;;;;;5.11;100.00;100392.59;5009687;28;20230;-68
2021/12/07 05:53:47;;;;;;;26.40;3.33;;;;;;;5.14;100.00;100396.69;5024039;28;20059;-68
2021/12/07 05:56:12;;;;;;;29.27;4.20;;;;;;;5.14;100.00;100386.06;5008392;28;20032;-68
2021/12/07 05:58:40;;;;;;;32.90;4.22;;;;;;;5.27;100.00;100375.25;5008935;28;20038;-67
2021/12/07 06:01:06;;;;;;;31.40;4.50;;;;;;;5.41;100.00;100381.25;5012345;28;20215;-68
2021/12/07 06:03:32;;;;;;;23.42;3.53;;;;;;;5.45;100.00;100387.75;5009658;28;20124;-67
2021/12/07 06:06:01;;;;;;;22.15;3.67;;;;;;;5.44;100.00;100381.59;5008814;28;20143;-68
2021/12/07 06:08:27;;;;;;;26.95;3.92;;;;;;;5.41;100.00;100389.22;5009038;28;20057;-68
2021/12/07 06:10:52;;;;;;;28.23;4.68;;;;;;;5.23;100.00;100374.91;5009074;28;20041;-68
2021/12/07 06:13:18;;;;;;;22.73;3.97;;;;;;;5.06;100.00;100371.19;5008706;28;20037;-68
2021/12/07 06:15:47;;;;;;;26.58;4.22;;;;;;;5.03;100.00;100382.25;5009536;28;20036;-68
2021/12/07 06:18:15;;;;;;;31.20;4.90;;;;;;;4.98;100.00;100371.47;5008692;28;20539;-68
2021/12/07 06:20:41;;;;;;;30.20;4.75;;;;;;;4.97;100.00;100375.19;5008929;28;20059;-67
2021/12/07 06:23:11;;;;;;;27.50;3.38;;;;;;;4.83;100.00;100373.66;5008678;28;20071;-68
2021/12/07 06:25:37;;;;;;;30.27;3.15;;;;;;;4.78;100.00;100377.78;4997784;28;20055;-68
2021/12/07 06:28:03;;;;;;;20.17;4.10;;;;;;;4.75;100.00;100372.09;5018454;28;20033;-68
2021/12/07 06:30:28;;;;;;;40.08;3.95;;;;;;;4.74;100.00;100381.09;5023229;28;20048;-67
2021/12/07 06:32:54;;;;;;;25.02;3.20;;;;;;;4.64;100.00;100376.28;5008036;28;20290;-67
2021/12/07 06:35:20;;;;;;;25.65;3.47;;;;;;;4.63;100.00;100374.63;4996451;28;20037;-68
2021/12/07 06:37:50;;;;;;;19.55;2.92;;;;;;;4.64;100.00;100389.56;5009305;28;20508;-67
2021/12/07 06:40:15;;;;;;;25.45;3.70;;;;;;;4.59;100.00;100383.28;5008742;28;20147;-68
2021/12/07 06:42:41;;;;;;;29.50;3.75;;;;;;;4.54;100.00;100391.88;5008562;28;20143;-67
2021/12/07 06:45:10;;;;;;;23.50;3.15;;;;;;;4.50;100.00;100388.84;5008018;28;20252;-68
2021/12/07 06:47:39;;;;;;;19.92;3.25;;;;;;;4.52;100.00;100387.81;5014711;28;20052;-67
2021/12/07 06:50:07;;;;;;;30.15;3.95;;;;;;;4.59;100.00;100392.06;4991016;28;20579;-67
2021/12/07 06:52:32;;;;;;;22.05;3.45;;;;;;;4.54;100.00;100386.56;5016146;28;20021;-66
2021/12/07 06:54:58;;;;;;;34.20;4.20;;;;;;;4.54;100.00;100396.38;5008777;28;20579;-67
2021/12/07 06:57:25;;;;;;;24.90;3.75;;;;;;;4.47;100.00;100391.13;5007513;28;20033;-67
2021/12/07 06:59:53;;;;;;;29.17;3.60;;;;;;;4.49;100.00;100397.06;5013631;28;20587;-67
2021/12/07 07:02:19;;;;;;;21.38;3.30;;;;;;;4.49;100.00;100394.41;5006948;28;20124;-67
2021/12/07 07:04:45;;;;;;;22.40;3.80;;;;;;;4.36;100.00;100389.16;5013258;28;20072;-68
2021/12/07 07:07:11;;;;;;;24.33;3.30;;;;;;;4.43;100.00;100403.22;5011650;28;20028;-68
2021/12/07 07:09:37;;;;;;;23.50;3.10;;;;;;;4.37;100.00;100407.53;5008362;28;20617;-67
2021/12/07 07:12:03;;;;;;;22.63;3.60;;;;;;;4.33;100.00;100401.03;5007027;28;21871;-69
2021/12/07 07:14:29;;;;;;;23.92;3.33;;;;;;;4.28;100.00;100408.00;5001074;28;20036;-67
2021/12/07 07:16:55;;;;;;;19.08;2.90;;;;;;;4.34;100.00;100415.13;5008357;28;20045;-67
2021/12/07 07:19:20;;;;;;;22.00;3.40;;;;;;;4.38;100.00;100397.72;5010965;28;20068;-68
2021/12/07 07:21:48;;;;;;;19.73;2.78;;;;;;;4.33;100.00;100406.34;5003495;28;20040;-68
2021/12/07 07:24:16;;;;;;;26.52;3.15;;;;;;;4.32;100.00;100419.84;5016385;28;20445;-68
2021/12/07 07:26:44;;;;;;;24.95;3.15;;;;;;;4.32;100.00;100403.91;5013804;28;20032;-67
2021/12/07 07:29:10;;;;;;;16.60;2.78;;;;;;;4.37;100.00;100396.91;5012414;28;20123;-67
2021/12/07 07:31:40;;;;;;;27.52;3.45;;;;;;;4.46;100.00;100384.19;5011607;28;20083;-67
2021/12/07 07:34:06;;;;;;;22.85;3.22;;;;;;;4.42;100.00;100393.63;5011326;28;20056;-67
2021/12/07 07:36:31;;;;;;;18.38;2.97;;;;;;;4.36;100.00;100365.25;5026780;28;20621;-67
2021/12/07 07:38:57;;;;;;;28.45;3.45;;;;;;;4.44;100.00;100376.44;5010509;28;20061;-67
2021/12/07 07:41:22;;;;;;;16.23;2.70;;;;;;;4.40;100.00;100377.09;5011585;28;20516;-70
2021/12/07 07:43:48;;;;;;;18.60;3.30;;;;;;;4.28;100.00;100363.69;5017960;28;20037;-68
2021/12/07 07:46:13;;;;;;;24.00;3.97;;;;;;;4.30;100.00;100374.09;5012172;28;20040;-67
2021/12/07 07:48:39;;;;;;;23.83;3.22;;;;;;;4.30;100.00;100392.66;5011582;28;20140;-68
2021/12/07 07:51:05;;;;;;;20.33;3.30;;;;;;;4.26;100.00;100383.53;5012308;28;20052;-68
2021/12/07 07:53:30;;;;;;;24.33;3.85;;;;;;;4.16;100.00;100373.38;5007880;28;20465;-67
2021/12/07 07:55:56;;;;;;;17.98;2.75;;;;;;;4.19;100.00;100384.38;5026082;28;20055;-67
2021/12/07 07:58:22;;;;;;;28.35;3.65;;;;;;;4.13;100.00;100371.94;5010637;28;20041;-66
2021/12/07 08:00:50;;;;;;;15.82;2.85;;;;;;;4.29;100.00;100378.59;5011873;28;20061;-67
2021/12/07 08:03:15;;;;;;;30.42;4.30;;;;;;;4.36;100.00;100381.19;5018882;28;20041;-67
2021/12/07 08:05:41;;;;;;;20.08;3.30;;;;;;;4.37;100.00;100380.16;5014590;28;20170;-67
2021/12/07 08:08:09;;;;;;;26.35;3.67;;;;;;;4.43;100.00;100387.28;5018441;28;21852;-67
2021/12/07 08:10:37;;;;;;;23.45;2.97;;;;;;;4.38;100.00;100392.41;5016948;28;20624;-67
2021/12/07 08:13:06;;;;;;;24.33;3.42;;;;;;;4.48;100.00;100392.78;5011631;28;20087;-67
2021/12/07 08:15:36;;;;;;;22.83;3.03;;;;;;;4.47;100.00;100389.28;5011842;28;20047;-68
2021/12/07 08:18:08;;;;;;;23.63;3.63;;;;;;;4.56;100.00;100389.84;5001955;28;20033;-68
2021/12/07 08:20:34;;;;;;;27.58;4.25;;;;;;;4.61;100.00;100379.38;5011458;28;20223;-68
2021/12/07 08:23:04;;;;;;;23.60;3.13;;;;;;;4.73;100.00;100385.63;5000621;28;20275;-68
2021/12/07 08:25:39;;;;;;;20.30;3.22;;;;;;;4.82;100.00;100394.13;5020910;28;20093;-67
2021/12/07 08:28:07;;;;;;;25.30;3.25;;;;;;;4.93;100.00;100387.25;5016886;28;20063;-68
2021/12/07 08:30:36;;;;;;;24.85;3.28;;;;;;;4.89;100.00;100383.44;5010500;28;20144;-68
2021/12/07 08:33:02;;;;;;;19.05;3.13;;;;;;;4.81;100.00;100387.19;5010232;28;20033;-68
2021/12/07 08:35:28;;;;;;;30.33;3.35;;;;;;;4.70;100.00;100385.22;5011666;28;20048;-68
2021/12/07 08:37:53;;;;;;;24.45;3.47;;;;;;;4.55;100.00;100377.56;5016451;28;20218;-68
2021/12/07 08:40:24;;;;;;;34.15;3.60;;;;;;;4.46;100.00;100374.38;5011617;28;20040;-68
2021/12/07 08:42:50;;;;;;;19.90;3.78;;;;;;;4.42;100.00;100377.69;5011152;28;20041;-67
2021/12/07 08:45:17;;;;;;;19.02;2.33;;;;;;;4.35;100.00;100377.72;5026334;28;20131;-68
2021/12/07 08:47:42;;;;;;;17.88;2.88;;;;;;;4.33;100.00;100384.28;5014922;28;20060;-69
2021/12/07 08:50:13;;;;;;;19.98;3.47;;;;;;;4.35;100.00;100391.00;5009804;28;20033;-68
2021/12/07 08:52:41;;;;;;;21.45;2.88;;;;;;;4.41;100.00;100381.38;5011099;28;20403;-67
2021/12/07 09:00:25;;;;;;;18.77;2.90;;;;;;;4.62;100.00;100375.66;5007785;28;20160;-67
2021/12/07 09:02:51;;;;;;;24.00;2.90;;;;;;;4.74;100.00;100381.91;4996414;28;20037;-67
2021/12/07 09:05:19;;;;;;;22.38;3.35;;;;;;;4.86;100.00;100378.53;5008744;28;20460;-67
2021/12/07 09:07:45;;;;;;;25.77;3.97;;;;;;;4.95;100.00;100383.34;5010636;28;20045;-68
2021/12/07 09:10:11;;;;;;;24.00;3.30;;;;;;;4.99;100.00;100373.91;5012402;28;20045;-67
2021/12/07 09:12:39;;;;;;;13.55;2.95;;;;;;;5.10;100.00;100363.59;5008389;28;20556;-67
2021/12/07 09:15:10;;;;;;;14.57;2.72;;;;;;;5.13;100.00;100371.94;5012199;28;20146;-68
2021/12/07 09:17:38;;;;;;;19.27;2.97;;;;;;;5.25;100.00;100380.81;5010409;28;20041;-68
2021/12/07 09:20:11;;;;;;;24.70;3.22;;;;;;;5.37;100.00;100374.72;5002788;28;20153;-68
2021/12/07 09:22:38;;;;;;;30.30;4.07;;;;;;;5.55;100.00;100374.75;5022892;28;20111;-67
2021/12/07 09:25:05;;;;;;;27.27;4.00;;;;;;;5.66;100.00;100378.50;5009695;28;20045;-68
2021/12/07 09:27:31;;;;;;;30.70;3.42;;;;;;;5.66;100.00;100371.31;5010521;28;20395;-68
2021/12/07 09:29:58;;;;;;;22.25;2.75;;;;;;;5.79;100.00;100381.00;5008460;28;20056;-68
2021/12/07 09:32:27;;;;;;;25.08;3.60;;;;;;;5.81;100.00;100381.59;5009564;28;20063;-68
2021/12/07 09:34:56;;;;;;;15.93;2.50;;;;;;;5.81;100.00;100376.25;5008984;28;20032;-68
2021/12/07 09:37:21;;;;;;;13.55;2.83;;;;;;;5.93;100.00;100374.47;5009520;28;20044;-69
2021/12/07 09:39:47;;;;;;;11.73;2.33;;;;;;;5.99;100.00;100370.09;5008275;28;20951;-70
2021/12/07 09:42:16;;;;;;;9.70;2.58;;;;;;;6.03;100.00;100388.09;5009240;28;20039;-68
2021/12/07 09:44:42;;;;;;;10.98;2.60;;;;;;;6.02;100.00;100390.94;5008807;28;20593;-69
2021/12/07 09:47:08;;;;;;;10.93;2.67;;;;;;;6.07;100.00;100393.75;5007134;28;20103;-69
2021/12/07 09:49:33;;;;;;;13.18;5.05;;;;;;;6.11;100.00;100406.41;5013578;28;20031;-69
2021/12/07 09:51:59;;;;;;;14.25;4.03;;;;;;;6.18;100.00;100399.09;5009443;28;20148;-69
2021/12/07 09:54:25;;;;;;;17.42;3.80;;;;;;;6.21;100.00;100403.19;5012656;28;20036;-68
2021/12/07 09:56:53;;;;;;;20.92;4.88;;;;;;;6.16;100.00;100405.72;4995703;28;20044;-69
2021/12/07 09:59:22;;;;;;;16.60;3.55;;;;;;;6.10;100.00;100414.59;5008851;28;20144;-68
2021/12/07 10:01:49;;;;;;;17.60;3.47;;;;;;;5.81;100.00;100398.38;5009481;28;21811;-68
2021/12/07 10:04:15;;;;;;;16.45;4.55;;;;;;;5.85;100.00;100412.84;5022409;28;20063;-68
2021/12/07 10:06:43;;;;;;;17.92;3.90;;;;;;;5.80;100.00;100412.72;4998514;28;20037;-69
2021/12/07 10:09:08;;;;;;;14.23;3.40;;;;;;;5.82;100.00;100402.66;5006743;28;20460;-69
2021/12/07 10:11:34;;;;;;;19.38;4.63;;;;;;;5.80;100.00;100388.75;5008567;28;20133;-70
2021/12/07 10:14:00;;;;;;;16.00;3.95;;;;;;;5.95;100.00;100387.59;5008261;28;20056;-69
2021/12/07 10:16:26;;;;;;;16.98;3.78;;;;;;;5.93;100.00;100355.84;5009184;28;20032;-69
2021/12/07 10:18:52;;;;;;;17.45;4.75;;;;;;;5.94;100.00;100369.97;5007181;28;20543;-69
2021/12/07 10:21:24;;;;;;;15.48;4.43;;;;;;;5.93;100.00;100384.31;5009488;28;20060;-70
2021/12/07 10:23:54;;;;;;;20.50;3.90;;;;;;;6.01;100.00;100371.50;5009951;28;20041;-69
2021/12/07 10:26:26;;;;;;;21.52;4.43;;;;;;;6.16;100.00;100376.41;5008298;28;20052;-69
2021/12/07 10:28:57;;;;;;;17.00;4.82;;;;;;;6.23;100.00;100374.47;5000874;28;20124;-69
2021/12/07 10:31:30;;;;;;;11.10;3.58;;;;;;;6.37;100.00;100375.09;5009588;28;20033;-69
2021/12/07 10:34:33;;;;;;;13.65;4.03;;;;;;;6.37;100.00;100362.56;5007822;28;20040;-69
2021/12/07 10:37:16;;;;;;;12.02;4.07;;;;;;;6.25;100.00;100348.41;4998882;28;20168;-69
2021/12/07 10:39:51;;;;;;;15.27;4.60;;;;;;;6.23;100.00;100357.69;4997240;28;20037;-69
2021/12/07 10:42:29;;;;;;;19.00;4.70;;;;;;;6.17;100.00;100360.19;4996560;28;20057;-68
2021/12/07 10:44:56;;;;;;;19.70;4.40;;;;;;;6.06;100.00;100342.34;5009407;28;20585;-69
2021/12/07 10:47:27;;;;;;;14.07;4.13;;;;;;;6.01;100.00;100344.06;5000983;28;20630;-69
2021/12/07 10:49:55;;;;;;;15.60;3.78;;;;;;;5.79;100.00;100325.91;5021024;28;20036;-69
2021/12/07 10:52:20;;;;;;;18.52;4.28;;;;;;;5.93;100.00;100336.38;4997808;28;20693;-69
2021/12/07 10:54:54;;;;;;;16.20;3.67;;;;;;;5.91;100.00;100325.97;5012330;28;20044;-69
2021/12/07 10:57:27;;;;;;;15.23;3.72;;;;;;;5.82;100.00;100325.44;5013198;28;20380;-68
2021/12/07 10:59:57;;;;;;;15.98;3.58;;;;;;;5.78;100.00;100318.13;5011050;28;20139;-69
2021/12/07 11:02:27;;;;;;;20.85;4.10;;;;;;;5.77;100.00;100312.00;5012282;28;20057;-70
2021/12/07 11:04:54;;;;;;;13.85;3.60;;;;;;;5.75;100.00;100305.28;5012647;28;20475;-71
2021/12/07 11:07:29;;;;;;;16.50;3.92;;;;;;;5.84;100.00;100310.06;5002644;28;20711;-70
2021/12/07 11:10:08;;;;;;;19.50;3.25;;;;;;;5.78;100.00;100315.47;5013149;28;20033;-68
2021/12/07 11:13:09;;;;;;;13.18;3.72;;;;;;;5.79;100.00;100309.13;5003983;28;20049;-68
2021/12/07 11:15:33;;;;;;;15.82;3.83;;;;;;;5.77;100.00;100306.66;5012422;28;20084;-69
2021/12/07 11:18:02;;;;;;;15.07;4.88;;;;;;;5.78;100.00;100308.31;4996933;28;20040;-69
2021/12/07 11:20:36;;;;;;;16.27;4.18;;;;;;;5.89;100.00;100304.88;5013006;28;20055;-69
2021/12/07 11:23:19;;;;;;;19.23;5.43;;;;;;;5.85;100.00;100293.03;5010916;28;20063;-69
2021/12/07 11:31:23;;;;;;;18.15;4.97;;;;;;;5.78;100.00;100297.66;5011261;28;20032;-70
2021/12/07 11:33:51;;;;;;;17.45;3.92;;;;;;;5.92;100.00;100292.16;5012278;28;20037;-74
2021/12/07 11:36:24;;;;;;;12.63;3.50;;;;;;;5.94;100.00;100279.44;5014316;28;20048;-76
2021/12/07 11:38:50;;;;;;;11.85;4.20;;;;;;;5.88;100.00;100271.31;5013670;28;22033;-73
2021/12/07 11:41:20;;;;;;;16.92;4.80;;;;;;;5.85;100.00;100244.31;5014681;28;20327;-74
2021/12/07 11:44:03;;;;;;;16.13;3.97;;;;;;;5.93;100.00;100251.19;5022585;28;20285;-72
2021/12/07 11:46:31;;;;;;;17.42;3.75;;;;;;;5.89;100.00;100245.50;5013379;28;20029;-75
2021/12/07 11:49:15;;;;;;;16.73;4.78;;;;;;;5.85;100.00;100234.47;5009192;28;20247;-75
2021/12/07 11:51:46;;;;;;;20.13;4.95;;;;;;;5.88;100.00;100236.69;5011960;28;20032;-74
2021/12/07 11:54:12;;;;;;;15.98;3.50;;;;;;;5.79;100.00;100230.06;5010582;28;20097;-74
2021/12/07 11:56:38;;;;;;;13.80;3.22;;;;;;;5.65;100.00;100239.28;5001367;28;20477;-74
2021/12/07 11:59:05;;;;;;;16.33;3.72;;;;;;;5.57;100.00;100227.13;4983860;28;20223;-75
2021/12/07 12:01:31;;;;;;;9.65;2.70;;;;;;;5.53;100.00;100225.13;5010967;28;20106;-74
2021/12/07 12:03:58;;;;;;;13.15;3.50;;;;;;;5.52;100.00;100212.88;5010247;28;20647;-75
2021/12/07 12:06:24;;;;;;;17.23;4.68;;;;;;;5.52;100.00;100219.00;5004016;28;20568;-74
2021/12/07 12:08:50;;;;;;;17.98;5.00;;;;;;;5.48;100.00;100203.72;5009480;28;20594;-75
2021/12/07 12:11:22;;;;;;;20.05;6.13;;;;;;;5.49;100.00;100202.69;5019560;28;20037;-75
2021/12/07 12:14:09;;;;;;;23.45;6.22;;;;;;;5.48;100.00;100190.44;5018670;28;20067;-75
2021/12/07 12:17:14;;;;;;;16.67;3.40;;;;;;;5.47;100.00;100180.81;5025012;28;20045;-75
2021/12/07 12:19:44;;;;;;;21.23;3.63;;;;;;;5.52;100.00;100183.59;5013032;28;20511;-75
2021/12/07 12:22:15;;;;;;;18.33;3.10;;;;;;;5.49;100.00;100158.25;5013599;28;20036;-74
2021/12/07 12:24:44;;;;;;;8.95;3.03;;;;;;;5.50;100.00;100161.72;5007530;28;20456;-74
2021/12/07 12:27:17;;;;;;;12.98;3.60;;;;;;;5.55;100.00;100164.53;4997476;28;20033;-74
2021/12/07 12:29:45;;;;;;;16.13;4.13;;;;;;;5.53;100.00;100166.59;5007526;28;20037;-74
2021/12/07 12:32:11;;;;;;;19.60;4.40;;;;;;;5.50;100.00;100148.44;5002273;28;20041;-74
2021/12/07 12:34:47;;;;;;;16.27;4.40;;;;;;;5.51;100.00;100153.50;4998359;28;20068;-74
2021/12/07 12:37:22;;;;;;;11.88;3.95;;;;;;;5.49;100.00;100152.13;5013333;28;20124;-74
2021/12/07 12:40:05;;;;;;;13.15;3.10;;;;;;;5.37;100.00;100154.75;5017994;28;20056;-74
2021/12/07 12:42:46;;;;;;;20.75;5.28;;;;;;;5.13;100.00;100124.66;5010562;28;20037;-74
2021/12/07 12:45:31;;;;;;;19.83;4.40;;;;;;;5.26;100.00;100136.91;5009398;28;20550;-74
2021/12/07 12:48:04;;;;;;;19.30;3.53;;;;;;;5.22;100.00;100133.91;4993948;28;20033;-74
2021/12/07 12:50:46;;;;;;;13.38;3.85;;;;;;;5.03;100.00;100108.41;5010771;28;20048;-74
2021/12/07 12:53:15;;;;;;;17.48;3.53;;;;;;;5.12;100.00;100119.53;5014683;28;20519;-74
2021/12/07 12:55:48;;;;;;;14.43;3.75;;;;;;;5.07;100.00;100113.06;5016035;28;20055;-74
2021/12/07 12:58:20;;;;;;;18.83;4.68;;;;;;;4.98;100.00;100103.78;5009130;28;20291;-74
2021/12/07 13:01:08;;;;;;;14.30;4.10;;;;;;;4.97;100.00;100107.47;5009991;28;20057;-74
2021/12/07 13:04:37;;;;;;;18.55;4.38;;;;;;;4.91;100.00;100086.31;5011360;28;20041;-74
2021/12/07 13:07:23;;;;;;;21.90;4.50;;;;;;;4.83;100.00;100082.13;4996861;28;20060;-74
2021/12/07 13:09:55;;;;;;;16.90;4.45;;;;;;;4.76;100.00;100079.53;5011019;28;20484;-74
2021/12/07 13:12:35;;;;;;;17.55;4.07;;;;;;;4.74;100.00;100068.34;5010375;28;20469;-67
2021/12/07 13:15:05;;;;;;;21.67;4.63;;;;;;;4.72;100.00;100053.63;5012893;28;20049;-68